Terminal Aerodrome Forecast
Issued by NWS

Home | Current Version | Previous Version | Text Only | Print | Product List | Glossary On
Versions: 1 2 3 4 5 6 7 8 9 10 11 12 13 14 15 16 17 18 19 20 21
000
FTUS44 KLZK 311700
TAFHRO
TAF
KHRO 311720Z 3118/0118 12005KT P6SM VCSH SCT008 OVC035
      TEMPO 3118/3121 5SM -RA BR BKN008 OVC025
     FM010000 VRB05KT 5SM BR VCSH BKN025 OVC040
      TEMPO 0100/0104 2SM BR
     FM010400 VRB03KT 3SM BR SCT010 BKN025
      TEMPO 0108/0112 1/2SM FG BKN005
     FM011500 09005KT P6SM SCT020 BKN035=

USA.gov is the U.S. government's official web portal to all federal, state and local government web resources and services.